createdAt,value
2023-08-03T00:00:58.172Z,0.00
2023-08-03T00:01:58.197Z,0.00
2023-08-03T00:02:58.315Z,0.00
2023-08-03T00:03:58.287Z,0.00
2023-08-03T00:04:58.217Z,0.00
2023-08-03T00:05:58.239Z,0.00
2023-08-03T00:06:58.285Z,0.00
2023-08-03T00:07:58.296Z,0.00
2023-08-03T00:08:58.310Z,0.00
2023-08-03T00:09:58.334Z,0.00
2023-08-03T00:10:58.367Z,0.00
2023-08-03T00:11:58.395Z,0.00
2023-08-03T00:12:58.393Z,0.00
2023-08-03T00:13:58.422Z,0.00
2023-08-03T00:14:58.438Z,0.00
2023-08-03T00:15:58.477Z,0.00
2023-08-03T00:16:58.504Z,0.00
2023-08-03T00:17:58.600Z,0.00
2023-08-03T00:18:58.533Z,0.00
2023-08-03T00:19:58.568Z,0.00
2023-08-03T00:20:58.574Z,0.00
2023-08-03T00:21:58.607Z,0.00
2023-08-03T00:22:58.639Z,0.00
2023-08-03T00:23:58.658Z,0.00
2023-08-03T00:24:58.720Z,0.00
2023-08-03T00:25:58.686Z,0.00
2023-08-03T00:26:58.733Z,0.00
2023-08-03T00:27:58.746Z,0.00
2023-08-03T00:28:58.760Z,0.00
2023-08-03T00:29:58.814Z,0.00
2023-08-03T00:30:58.848Z,0.00
2023-08-03T00:31:58.827Z,0.00
2023-08-03T00:32:58.910Z,0.00
2023-08-03T00:33:58.868Z,0.00
2023-08-03T00:34:58.918Z,0.00
2023-08-03T00:35:58.941Z,0.00
2023-08-03T00:36:58.955Z,0.00
2023-08-03T00:37:58.961Z,0.00
2023-08-03T00:38:59.008Z,0.00
2023-08-03T00:39:59.036Z,0.00
2023-08-03T00:40:59.024Z,0.00
2023-08-03T00:41:59.049Z,0.00
2023-08-03T00:42:59.078Z,0.00
2023-08-03T00:43:59.091Z,0.00
2023-08-03T00:44:59.168Z,0.00
2023-08-03T00:45:59.172Z,0.00
2023-08-03T00:46:59.171Z,0.00
2023-08-03T00:47:59.246Z,0.00
2023-08-03T00:48:59.209Z,0.00
2023-08-03T00:49:59.232Z,0.00
2023-08-03T00:50:59.279Z,0.00
2023-08-03T00:51:59.286Z,0.00
2023-08-03T00:52:59.315Z,0.00
2023-08-03T00:53:59.325Z,0.00
2023-08-03T00:54:59.388Z,0.00
2023-08-03T00:55:59.421Z,0.00
2023-08-03T00:56:59.527Z,0.00
2023-08-03T00:57:59.448Z,0.00
2023-08-03T00:58:59.446Z,0.00
2023-08-03T00:59:59.472Z,0.00
2023-08-03T01:00:59.524Z,0.00
2023-08-03T01:01:59.564Z,0.00
2023-08-03T01:02:59.665Z,0.00
2023-08-03T01:03:59.548Z,0.00
2023-08-03T01:04:59.582Z,0.00
2023-08-03T01:05:59.590Z,0.00
2023-08-03T01:06:59.623Z,0.00
2023-08-03T01:07:59.651Z,0.00
2023-08-03T01:08:59.664Z,0.00
2023-08-03T01:09:59.739Z,0.00
2023-08-03T01:10:59.702Z,0.00
2023-08-03T01:11:59.727Z,0.00
2023-08-03T01:12:59.767Z,0.00
2023-08-03T01:13:59.810Z,0.00
2023-08-03T01:14:59.827Z,0.00
2023-08-03T01:15:59.818Z,0.00
2023-08-03T01:16:59.878Z,0.00
2023-08-03T01:17:59.929Z,0.00
2023-08-03T01:18:59.894Z,0.00
2023-08-03T01:19:59.972Z,0.00
2023-08-03T01:20:59.934Z,0.00
2023-08-03T01:21:59.955Z,0.00
2023-08-03T01:22:59.976Z,0.00
2023-08-03T01:24:00.001Z,0.00
2023-08-03T01:25:00.064Z,0.00
2023-08-03T01:26:00.055Z,0.00
2023-08-03T01:27:00.133Z,0.00
2023-08-03T01:28:00.092Z,0.00
2023-08-03T01:29:00.167Z,0.00
2023-08-03T01:30:00.179Z,0.00
2023-08-03T01:31:00.224Z,0.00
2023-08-03T01:32:00.222Z,0.00
2023-08-03T01:33:00.319Z,0.00
2023-08-03T01:34:00.232Z,0.00
2023-08-03T01:35:00.272Z,0.00
2023-08-03T01:36:00.306Z,0.00
2023-08-03T01:37:00.310Z,0.00
2023-08-03T01:38:00.320Z,0.00
2023-08-03T01:39:00.340Z,0.00
2023-08-03T01:40:00.432Z,0.00
2023-08-03T01:41:00.383Z,0.00
2023-08-03T01:42:00.435Z,0.00
2023-08-03T01:43:00.454Z,0.00
2023-08-03T01:44:00.465Z,0.00
2023-08-03T01:45:00.513Z,0.00
2023-08-03T01:46:00.546Z,0.00
2023-08-03T01:47:00.567Z,0.00
2023-08-03T01:48:00.570Z,0.00
2023-08-03T01:49:00.566Z,0.00
2023-08-03T01:50:00.632Z,0.00
2023-08-03T01:51:00.670Z,0.00
2023-08-03T01:52:00.641Z,0.00
2023-08-03T01:53:00.657Z,0.00
2023-08-03T01:54:00.682Z,0.00
2023-08-03T01:55:00.740Z,0.00
2023-08-03T01:56:00.768Z,0.00
2023-08-03T01:57:00.792Z,0.00
2023-08-03T01:58:00.772Z,0.00
2023-08-03T01:59:00.820Z,0.00
2023-08-03T02:00:00.821Z,0.00
2023-08-03T02:01:00.884Z,0.00
2023-08-03T02:02:01.273Z,0.00
2023-08-03T02:03:00.918Z,0.00
2023-08-03T02:04:00.934Z,0.00
2023-08-03T02:05:00.933Z,0.00
2023-08-03T02:06:00.949Z,0.00
2023-08-03T02:07:00.965Z,0.00
2023-08-03T02:08:01.008Z,0.00
2023-08-03T02:09:01.023Z,0.00
2023-08-03T02:10:01.036Z,0.00
2023-08-03T02:11:01.116Z,0.00
2023-08-03T02:12:01.097Z,0.00
2023-08-03T02:13:01.141Z,0.00
2023-08-03T02:14:01.256Z,0.00
2023-08-03T02:15:01.180Z,0.00
2023-08-03T02:16:14.909Z,0.00
2023-08-03T02:17:01.241Z,0.00
2023-08-03T02:18:01.325Z,0.00
2023-08-03T02:19:01.276Z,0.00
2023-08-03T02:20:01.311Z,0.00
2023-08-03T02:21:01.287Z,0.00
2023-08-03T02:22:01.319Z,0.00
2023-08-03T02:23:01.335Z,0.00
2023-08-03T02:24:01.371Z,0.00
2023-08-03T02:25:01.399Z,0.00
2023-08-03T02:26:01.383Z,0.00
2023-08-03T02:27:01.523Z,0.00
2023-08-03T02:28:01.455Z,0.00
2023-08-03T02:29:01.446Z,0.00
2023-08-03T02:30:01.494Z,0.00
2023-08-03T02:31:01.488Z,0.00
2023-08-03T02:32:01.553Z,0.00
2023-08-03T02:33:01.566Z,0.00
2023-08-03T02:34:02.342Z,0.00
2023-08-03T02:35:01.635Z,0.00
2023-08-03T02:36:01.608Z,0.00
2023-08-03T02:37:01.620Z,0.00
2023-08-03T02:38:01.661Z,0.00
2023-08-03T02:39:01.669Z,0.00
2023-08-03T02:40:01.767Z,0.00
2023-08-03T02:41:01.764Z,0.00
2023-08-03T02:42:01.756Z,0.00
2023-08-03T02:43:01.771Z,0.00
2023-08-03T02:44:01.767Z,0.00
2023-08-03T02:45:01.792Z,0.00
2023-08-03T02:46:01.883Z,0.00
2023-08-03T02:47:01.833Z,0.00
2023-08-03T02:48:01.890Z,0.00
2023-08-03T02:49:01.935Z,0.00
2023-08-03T02:50:01.903Z,0.00
2023-08-03T02:51:01.957Z,0.00
2023-08-03T02:52:32.932Z,0.00
2023-08-03T02:53:01.993Z,0.00
2023-08-03T02:54:01.978Z,0.00
2023-08-03T02:55:02.018Z,0.00
2023-08-03T02:56:02.074Z,0.00
2023-08-03T02:57:02.045Z,0.00
2023-08-03T02:58:02.090Z,0.00
2023-08-03T02:59:02.088Z,0.00
2023-08-03T03:00:02.138Z,0.00
2023-08-03T03:01:02.229Z,0.00
2023-08-03T03:02:02.160Z,0.00
2023-08-03T03:03:02.242Z,0.00
2023-08-03T03:04:02.188Z,0.00
2023-08-03T03:05:02.240Z,0.00
2023-08-03T03:06:02.291Z,0.00
2023-08-03T03:07:02.336Z,0.00
2023-08-03T03:08:02.277Z,0.00
2023-08-03T03:09:02.300Z,0.00
2023-08-03T03:10:02.320Z,0.00
2023-08-03T03:11:02.342Z,0.00
2023-08-03T03:12:02.387Z,0.00
2023-08-03T03:13:02.456Z,0.00
2023-08-03T03:14:02.415Z,0.00
2023-08-03T03:15:02.430Z,0.00
2023-08-03T03:16:02.507Z,0.00
2023-08-03T03:17:02.545Z,0.00
2023-08-03T03:18:02.565Z,0.00
2023-08-03T03:19:02.515Z,0.00
2023-08-03T03:20:02.550Z,0.00
2023-08-03T03:21:02.557Z,0.00
2023-08-03T03:22:02.621Z,0.00
2023-08-03T03:23:02.662Z,0.00
2023-08-03T03:24:02.637Z,0.00
2023-08-03T03:25:02.640Z,0.00
2023-08-03T03:26:02.699Z,0.00
2023-08-03T03:27:02.794Z,0.00
2023-08-03T03:28:02.719Z,0.00
2023-08-03T03:29:02.742Z,0.00
2023-08-03T03:30:02.763Z,0.00
2023-08-03T03:31:02.790Z,0.00
2023-08-03T03:32:04.486Z,0.00
2023-08-03T03:33:02.856Z,0.00
2023-08-03T03:34:02.862Z,0.00
2023-08-03T03:35:02.872Z,0.00
2023-08-03T03:36:02.891Z,0.00
2023-08-03T03:37:02.976Z,0.00
2023-08-03T03:38:02.917Z,0.00
2023-08-03T03:39:02.956Z,0.00
2023-08-03T03:40:02.963Z,0.00
2023-08-03T03:41:03.005Z,0.00
2023-08-03T03:42:03.069Z,0.00
2023-08-03T03:43:03.026Z,0.00
2023-08-03T03:44:03.074Z,0.00
2023-08-03T03:45:03.064Z,0.00
2023-08-03T03:46:03.112Z,0.00
2023-08-03T03:47:03.135Z,0.00
2023-08-03T03:48:03.246Z,0.00
2023-08-03T03:49:03.177Z,0.00
2023-08-03T03:50:03.214Z,0.00
2023-08-03T03:51:03.198Z,0.00
2023-08-03T03:52:03.233Z,0.00
2023-08-03T03:53:03.289Z,0.00
2023-08-03T03:54:03.260Z,0.00
2023-08-03T03:55:03.278Z,0.00
2023-08-03T03:56:03.298Z,0.00
2023-08-03T03:57:03.327Z,0.00
2023-08-03T03:58:03.376Z,0.00
2023-08-03T03:59:03.374Z,0.00
2023-08-03T04:00:03.395Z,0.00
2023-08-03T04:01:03.471Z,0.00
2023-08-03T04:02:03.423Z,0.00
2023-08-03T04:03:03.548Z,0.00
2023-08-03T04:04:03.477Z,0.00
2023-08-03T04:05:03.505Z,0.00
2023-08-03T04:06:03.571Z,0.00
2023-08-03T04:07:03.552Z,0.00
2023-08-03T04:08:03.611Z,0.00
2023-08-03T04:09:03.618Z,0.00
2023-08-03T04:10:03.596Z,0.00
2023-08-03T04:11:03.625Z,0.00
2023-08-03T04:12:03.682Z,0.00
2023-08-03T04:13:03.706Z,0.00
2023-08-03T04:14:03.747Z,0.00
2023-08-03T04:15:03.700Z,0.00
2023-08-03T04:16:03.797Z,0.00
2023-08-03T04:17:03.745Z,0.00
2023-08-03T04:18:03.848Z,0.00
2023-08-03T04:19:03.861Z,0.00
2023-08-03T04:20:03.874Z,0.00
2023-08-03T04:21:03.831Z,0.00
2023-08-03T04:22:03.861Z,0.00
2023-08-03T04:23:03.875Z,0.00
2023-08-03T04:24:03.956Z,0.00
2023-08-03T04:25:03.917Z,0.00
2023-08-03T04:26:03.952Z,0.00
2023-08-03T04:27:03.957Z,0.00
2023-08-03T04:28:03.975Z,0.00
2023-08-03T04:29:04.057Z,0.00
2023-08-03T04:30:04.114Z,0.00
2023-08-03T04:31:04.085Z,0.00
2023-08-03T04:32:04.083Z,0.00
2023-08-03T04:33:04.097Z,0.00
2023-08-03T04:34:04.106Z,0.00
2023-08-03T04:35:04.176Z,0.00
2023-08-03T04:36:04.150Z,0.00
2023-08-03T04:37:04.168Z,0.00
2023-08-03T04:38:04.198Z,0.00
2023-08-03T04:39:04.219Z,0.00
2023-08-03T04:40:04.263Z,0.00
2023-08-03T04:41:04.261Z,0.00
2023-08-03T04:42:04.279Z,0.00
2023-08-03T04:43:04.294Z,0.00
2023-08-03T04:44:04.318Z,0.00
2023-08-03T04:45:04.410Z,0.00
2023-08-03T04:46:04.355Z,0.00
2023-08-03T04:47:04.383Z,0.00
2023-08-03T04:48:04.436Z,0.00
2023-08-03T04:49:04.442Z,0.00
2023-08-03T04:50:04.476Z,0.00
2023-08-03T04:51:04.500Z,0.00
2023-08-03T04:52:04.488Z,0.00
2023-08-03T04:53:04.556Z,0.00
2023-08-03T04:54:04.527Z,0.00
2023-08-03T04:55:04.591Z,0.00
2023-08-03T04:56:04.628Z,0.00
2023-08-03T04:57:04.620Z,0.00
2023-08-03T04:58:04.618Z,0.00
2023-08-03T04:59:04.636Z,0.00
2023-08-03T05:00:04.654Z,0.00
2023-08-03T05:01:04.748Z,0.00
2023-08-03T05:02:04.775Z,0.00
2023-08-03T05:03:04.757Z,0.00
2023-08-03T05:04:04.796Z,0.00
2023-08-03T05:05:04.760Z,0.00
2023-08-03T05:06:06.222Z,0.00
2023-08-03T05:07:04.851Z,0.00
2023-08-03T05:08:04.828Z,0.00
2023-08-03T05:09:04.854Z,0.00
2023-08-03T05:10:04.900Z,0.00
2023-08-03T05:11:04.884Z,0.00
2023-08-03T05:12:04.949Z,0.00
2023-08-03T05:13:04.969Z,0.00
2023-08-03T05:14:04.952Z,0.00
2023-08-03T05:15:04.974Z,0.00
2023-08-03T05:16:04.990Z,0.00
2023-08-03T05:17:05.050Z,0.00
2023-08-03T05:18:05.158Z,0.00
2023-08-03T05:19:05.109Z,0.00
2023-08-03T05:20:05.564Z,0.00
2023-08-03T05:21:05.104Z,0.00
2023-08-03T05:22:05.125Z,0.00
2023-08-03T05:23:05.141Z,0.00
2023-08-03T05:24:05.216Z,0.00
2023-08-03T05:25:05.182Z,0.00
2023-08-03T05:26:05.213Z,0.00
2023-08-03T05:27:05.237Z,0.00
2023-08-03T05:28:05.251Z,0.00
2023-08-03T05:29:05.324Z,0.00
2023-08-03T05:30:05.293Z,0.00
2023-08-03T05:31:05.358Z,0.00
2023-08-03T05:32:05.334Z,0.00
2023-08-03T05:33:05.412Z,0.00
2023-08-03T05:34:05.426Z,0.00
2023-08-03T05:35:05.396Z,0.00
2023-08-03T05:36:05.426Z,0.00
2023-08-03T05:37:05.448Z,0.00
2023-08-03T05:38:05.456Z,0.00
2023-08-03T05:39:05.514Z,0.00
2023-08-03T05:40:05.542Z,0.00
2023-08-03T05:41:05.520Z,0.00
2023-08-03T05:42:05.550Z,0.00
2023-08-03T05:43:05.562Z,0.00
2023-08-03T05:44:05.606Z,0.00
2023-08-03T05:45:05.660Z,5.63
2023-08-03T05:46:05.691Z,5.63
2023-08-03T05:47:05.650Z,5.63
2023-08-03T05:48:05.738Z,11.25
2023-08-03T05:49:05.689Z,16.88
2023-08-03T05:50:05.778Z,16.88
2023-08-03T05:51:05.747Z,11.25
2023-08-03T05:52:05.745Z,11.25
2023-08-03T05:53:05.766Z,5.63
2023-08-03T05:54:05.802Z,5.63
2023-08-03T05:55:05.837Z,5.63
2023-08-03T05:56:12.159Z,0.00
2023-08-03T05:57:05.860Z,0.00
2023-08-03T05:58:05.873Z,0.00
2023-08-03T05:59:05.899Z,0.00
2023-08-03T06:00:05.923Z,0.00
2023-08-03T06:01:06.371Z,0.00
2023-08-03T06:02:06.292Z,0.00
2023-08-03T06:03:06.019Z,0.00
2023-08-03T06:04:06.094Z,0.00
2023-08-03T06:05:06.038Z,0.00
2023-08-03T06:06:06.426Z,0.00
2023-08-03T06:07:06.111Z,0.00
2023-08-03T06:08:06.099Z,0.00
2023-08-03T06:09:06.111Z,0.00
2023-08-03T06:10:06.133Z,0.00
2023-08-03T06:11:06.161Z,0.00
2023-08-03T06:12:06.197Z,0.00
2023-08-03T06:13:06.208Z,0.00
2023-08-03T06:14:06.223Z,0.00
2023-08-03T06:15:06.249Z,5.63
2023-08-03T06:16:06.304Z,0.00
2023-08-03T06:17:06.291Z,5.63
2023-08-03T06:18:06.355Z,0.00
2023-08-03T06:19:06.321Z,5.63
2023-08-03T06:20:06.346Z,5.63
2023-08-03T06:21:06.393Z,5.63
2023-08-03T06:22:06.439Z,5.63
2023-08-03T06:23:06.404Z,0.00
2023-08-03T06:24:06.499Z,5.63
2023-08-03T06:25:06.456Z,0.00
2023-08-03T06:26:06.545Z,0.00
2023-08-03T06:27:06.553Z,0.00
2023-08-03T06:28:06.516Z,0.00
2023-08-03T06:29:06.640Z,0.00
2023-08-03T06:30:06.586Z,0.00
2023-08-03T06:31:06.576Z,0.00
2023-08-03T06:32:06.650Z,0.00
2023-08-03T06:33:06.706Z,0.00
2023-08-03T06:34:06.721Z,0.00
2023-08-03T06:35:06.680Z,0.00
2023-08-03T06:36:06.692Z,0.00
2023-08-03T06:37:06.712Z,0.00
2023-08-03T06:38:06.721Z,5.63
2023-08-03T06:39:06.778Z,5.63
2023-08-03T06:40:06.772Z,5.63
2023-08-03T06:41:06.800Z,5.63
2023-08-03T06:42:06.811Z,5.63
2023-08-03T06:43:06.864Z,0.00
2023-08-03T06:44:06.914Z,0.00
2023-08-03T06:45:06.903Z,0.00
2023-08-03T06:46:06.938Z,0.00
2023-08-03T06:47:06.945Z,0.00
2023-08-03T06:48:07.033Z,5.63
2023-08-03T06:49:06.968Z,5.63
2023-08-03T06:50:06.988Z,5.63
2023-08-03T06:51:07.051Z,5.63
2023-08-03T06:52:07.023Z,5.63
2023-08-03T06:53:07.128Z,0.00
2023-08-03T06:54:07.088Z,0.00
2023-08-03T06:55:07.162Z,5.63
2023-08-03T06:56:07.191Z,5.63
2023-08-03T06:57:07.196Z,5.63
2023-08-03T06:58:07.266Z,5.63
2023-08-03T06:59:07.197Z,5.63
2023-08-03T07:00:07.233Z,5.63
2023-08-03T07:01:07.299Z,0.00
2023-08-03T07:02:07.272Z,0.00
2023-08-03T07:03:07.346Z,0.00
2023-08-03T07:04:07.281Z,0.00
2023-08-03T07:05:07.319Z,0.00
2023-08-03T07:06:07.403Z,0.00
2023-08-03T07:07:07.340Z,5.63
2023-08-03T07:08:07.371Z,11.25
2023-08-03T07:09:07.414Z,11.25
2023-08-03T07:10:07.414Z,5.63
2023-08-03T07:11:07.452Z,11.25
2023-08-03T07:12:07.475Z,11.25
2023-08-03T07:13:07.530Z,11.25
2023-08-03T07:14:07.494Z,11.25
2023-08-03T07:15:07.530Z,16.88
2023-08-03T07:16:07.593Z,11.25
2023-08-03T07:17:07.565Z,11.25
2023-08-03T07:18:07.768Z,11.25
2023-08-03T07:19:07.843Z,5.63
2023-08-03T07:20:07.624Z,5.63
2023-08-03T07:21:07.633Z,5.63
2023-08-03T07:22:07.842Z,5.63
2023-08-03T07:23:07.722Z,5.63
2023-08-03T07:24:07.744Z,5.63
2023-08-03T07:25:07.730Z,0.00
2023-08-03T07:26:07.757Z,0.00
2023-08-03T07:27:07.772Z,0.00
2023-08-03T07:28:07.822Z,0.00
2023-08-03T07:29:07.814Z,0.00
2023-08-03T07:30:07.839Z,0.00
2023-08-03T07:31:07.944Z,0.00
2023-08-03T07:32:07.883Z,5.63
2023-08-03T07:33:08.782Z,0.00
2023-08-03T07:34:07.927Z,5.63
2023-08-03T07:35:08.720Z,0.00
2023-08-03T07:36:08.010Z,5.63
2023-08-03T07:37:08.005Z,5.63
2023-08-03T07:38:08.021Z,5.63
2023-08-03T07:39:08.081Z,5.63
2023-08-03T07:40:08.863Z,5.63
2023-08-03T07:43:57.469Z,5.63
2023-08-03T07:44:56.823Z,5.63
2023-08-03T07:45:57.465Z,0.00
2023-08-03T07:49:48.653Z,5.63
2023-08-03T07:50:48.175Z,5.63
2023-08-03T07:51:47.729Z,5.63
2023-08-03T07:52:46.292Z,5.63
2023-08-03T07:53:46.337Z,5.63
2023-08-03T07:54:46.272Z,5.63
2023-08-03T07:55:57.396Z,5.63
2023-08-03T07:56:46.905Z,5.63
2023-08-03T07:57:46.950Z,5.63
2023-08-03T07:58:46.486Z,5.63
2023-08-03T08:02:31.756Z,0.00
2023-08-03T08:03:34.252Z,0.00
2023-08-03T08:04:34.229Z,0.00
2023-08-03T08:05:32.639Z,0.00
2023-08-03T08:06:32.538Z,0.00
2023-08-03T08:07:33.295Z,5.63
2023-08-03T08:08:32.082Z,5.63
2023-08-03T08:09:32.411Z,0.00
2023-08-03T08:10:34.248Z,0.00
2023-08-03T08:11:33.066Z,5.63
2023-08-03T08:12:31.926Z,5.63
2023-08-03T08:13:31.961Z,5.63
2023-08-03T08:14:31.976Z,5.63
2023-08-03T08:15:32.094Z,5.63
2023-08-03T08:16:32.045Z,5.63
2023-08-03T08:17:32.086Z,5.63
2023-08-03T08:18:32.083Z,5.63
2023-08-03T08:19:32.078Z,0.00
2023-08-03T08:20:32.121Z,5.63
2023-08-03T08:21:32.201Z,5.63
2023-08-03T08:22:32.331Z,5.63
2023-08-03T08:23:32.261Z,5.63
2023-08-03T08:24:32.402Z,5.63
2023-08-03T08:25:32.331Z,5.63
2023-08-03T08:26:32.350Z,5.63
2023-08-03T08:27:32.353Z,11.25
2023-08-03T08:28:40.068Z,5.63
2023-08-03T08:29:32.290Z,11.25
2023-08-03T08:30:32.375Z,11.25
2023-08-03T08:31:52.626Z,11.25
2023-08-03T08:32:32.406Z,11.25
2023-08-03T08:33:32.382Z,5.63
2023-08-03T08:34:32.712Z,11.25
2023-08-03T08:35:32.419Z,5.63
2023-08-03T08:36:32.461Z,5.63
2023-08-03T08:37:32.570Z,5.63
2023-08-03T08:38:32.497Z,5.63
2023-08-03T08:39:32.537Z,5.63
2023-08-03T08:40:32.529Z,5.63
2023-08-03T08:41:32.557Z,5.63
2023-08-03T08:42:32.617Z,5.63
2023-08-03T08:43:32.589Z,11.25
2023-08-03T08:44:32.626Z,11.25
2023-08-03T08:45:32.631Z,5.63
2023-08-03T08:46:32.770Z,5.63
2023-08-03T08:47:32.905Z,11.25
2023-08-03T08:50:33.291Z,11.25
2023-08-03T08:54:17.787Z,5.63
2023-08-03T08:59:32.975Z,5.63
2023-08-03T08:59:33.447Z,5.63
2023-08-03T09:00:32.957Z,0.00
2023-08-03T09:01:33.006Z,0.00
2023-08-03T09:02:33.225Z,0.00
2023-08-03T09:04:31.680Z,5.63
2023-08-03T09:04:34.133Z,0.00
2023-08-03T09:06:33.157Z,0.00
2023-08-03T09:07:33.149Z,0.00
2023-08-03T09:08:33.127Z,0.00
2023-08-03T09:09:33.156Z,5.63
2023-08-03T09:10:33.237Z,5.63
2023-08-03T09:11:33.245Z,5.63
2023-08-03T09:12:33.266Z,5.63
2023-08-03T09:13:33.255Z,5.63
2023-08-03T09:14:33.328Z,5.63
2023-08-03T09:15:33.342Z,5.63
2023-08-03T09:16:33.387Z,5.63
2023-08-03T09:17:33.422Z,5.63
2023-08-03T09:18:33.674Z,5.63
2023-08-03T09:19:33.402Z,5.63
2023-08-03T09:24:35.872Z,5.63
2023-08-03T09:25:41.372Z,5.63
2023-08-03T09:29:33.596Z,5.63
2023-08-03T09:30:37.033Z,5.63
2023-08-03T09:31:33.696Z,5.63
2023-08-03T09:32:33.724Z,5.63
2023-08-03T09:33:34.008Z,5.63
2023-08-03T09:36:33.775Z,5.63
2023-08-03T09:38:33.786Z,5.63
2023-08-03T09:39:33.796Z,11.25
2023-08-03T09:40:33.853Z,11.25
2023-08-03T09:41:57.731Z,11.25
2023-08-03T09:42:35.617Z,11.25
2023-08-03T09:43:35.610Z,11.25
2023-08-03T09:44:33.920Z,11.25
2023-08-03T09:45:33.984Z,16.88
2023-08-03T09:46:33.978Z,16.88
2023-08-03T09:47:34.013Z,22.50
2023-08-03T09:48:34.054Z,16.88
2023-08-03T09:49:34.006Z,11.25
2023-08-03T09:50:34.124Z,11.25
2023-08-03T09:51:34.113Z,5.63
2023-08-03T09:53:34.183Z,5.63
2023-08-03T09:55:06.793Z,5.63
2023-08-03T09:55:34.135Z,5.63
2023-08-03T09:56:34.742Z,5.63
2023-08-03T09:57:34.180Z,5.63
2023-08-03T09:58:34.201Z,5.63
2023-08-03T09:59:34.282Z,5.63
2023-08-03T10:00:34.318Z,5.63
2023-08-03T10:01:34.296Z,5.63
2023-08-03T10:02:34.411Z,5.63
2023-08-03T10:03:34.527Z,5.63
2023-08-03T10:04:34.397Z,11.25
2023-08-03T10:05:35.272Z,11.25
2023-08-03T10:06:34.530Z,11.25
2023-08-03T10:07:34.424Z,11.25
2023-08-03T10:08:34.425Z,11.25
2023-08-03T10:09:34.518Z,11.25
2023-08-03T10:10:34.545Z,11.25
2023-08-03T10:11:34.555Z,11.25
2023-08-03T10:12:34.582Z,11.25
2023-08-03T10:13:34.622Z,11.25
2023-08-03T10:14:34.633Z,11.25
2023-08-03T10:15:37.896Z,11.25
2023-08-03T10:16:34.705Z,11.25
2023-08-03T10:17:34.657Z,11.25
2023-08-03T10:18:50.019Z,11.25
2023-08-03T10:19:35.382Z,16.88
2023-08-03T10:20:34.735Z,11.25
2023-08-03T10:21:34.767Z,11.25
2023-08-03T10:22:34.738Z,11.25
2023-08-03T10:23:34.810Z,11.25
2023-08-03T10:24:34.812Z,16.88
2023-08-03T10:25:34.791Z,11.25
2023-08-03T10:26:34.811Z,11.25
2023-08-03T10:27:34.863Z,11.25
2023-08-03T10:28:34.880Z,11.25
2023-08-03T10:29:34.880Z,11.25
2023-08-03T10:30:34.960Z,11.25
2023-08-03T10:31:34.966Z,16.88
2023-08-03T10:32:34.985Z,16.88
2023-08-03T10:33:34.994Z,16.88
2023-08-03T10:34:34.975Z,22.50
2023-08-03T10:35:35.015Z,16.88
2023-08-03T10:36:35.285Z,22.50
2023-08-03T10:37:35.047Z,22.50
2023-08-03T10:38:35.068Z,28.13
2023-08-03T10:39:35.108Z,28.13
2023-08-03T10:40:35.115Z,22.50
2023-08-03T10:41:35.173Z,22.50
2023-08-03T10:42:35.162Z,22.50
2023-08-03T10:43:35.169Z,16.88
2023-08-03T10:44:35.196Z,16.88
2023-08-03T10:45:35.270Z,16.88
2023-08-03T10:46:35.443Z,16.88
2023-08-03T10:47:35.382Z,16.88
2023-08-03T10:48:35.504Z,16.88
2023-08-03T10:49:35.336Z,22.50
2023-08-03T10:50:35.326Z,16.88
2023-08-03T10:51:35.356Z,22.50
2023-08-03T10:52:35.585Z,16.88
2023-08-03T10:53:35.401Z,16.88
2023-08-03T10:54:35.412Z,22.50
2023-08-03T10:55:35.452Z,22.50
2023-08-03T10:56:35.459Z,22.50
2023-08-03T10:57:35.535Z,22.50
2023-08-03T10:58:35.526Z,28.13
2023-08-03T10:59:35.520Z,22.50
2023-08-03T11:00:35.541Z,22.50
2023-08-03T11:01:35.647Z,22.50
2023-08-03T11:02:35.749Z,28.13
2023-08-03T11:03:35.750Z,28.13
2023-08-03T11:04:35.699Z,22.50
2023-08-03T11:05:35.727Z,22.50
2023-08-03T11:06:35.694Z,16.88
2023-08-03T11:07:35.724Z,22.50
2023-08-03T11:08:35.722Z,22.50
2023-08-03T11:09:35.739Z,28.13
2023-08-03T11:10:35.811Z,22.50
2023-08-03T11:11:35.812Z,28.13
2023-08-03T11:12:35.833Z,33.75
2023-08-03T11:13:35.872Z,33.75
2023-08-03T11:14:35.883Z,33.75
2023-08-03T11:15:35.906Z,33.75
2023-08-03T11:16:35.996Z,28.13
2023-08-03T11:17:35.973Z,33.75
2023-08-03T11:18:35.939Z,22.50
2023-08-03T11:19:35.993Z,22.50
2023-08-03T11:20:36.015Z,22.50
2023-08-03T11:21:36.038Z,22.50
2023-08-03T11:22:36.073Z,22.50
2023-08-03T11:23:36.063Z,22.50
2023-08-03T11:24:36.077Z,22.50
2023-08-03T11:25:36.100Z,22.50
2023-08-03T11:26:36.144Z,22.50
2023-08-03T11:27:36.148Z,22.50
2023-08-03T11:28:36.213Z,22.50
2023-08-03T11:29:36.182Z,28.13
2023-08-03T11:30:36.229Z,22.50
2023-08-03T11:31:36.290Z,22.50
2023-08-03T11:32:36.346Z,16.88
2023-08-03T11:33:36.301Z,16.88
2023-08-03T11:34:36.454Z,16.88
2023-08-03T11:35:36.325Z,16.88
2023-08-03T11:36:36.342Z,22.50
2023-08-03T11:37:36.484Z,16.88
2023-08-03T11:38:36.443Z,22.50
2023-08-03T11:39:36.406Z,22.50
2023-08-03T11:40:36.463Z,22.50
2023-08-03T11:41:36.474Z,22.50
2023-08-03T11:42:36.479Z,28.13
2023-08-03T11:43:36.572Z,33.75
2023-08-03T11:44:36.808Z,28.13
2023-08-03T11:45:36.582Z,22.50
2023-08-03T11:46:36.589Z,22.50
2023-08-03T11:47:36.642Z,22.50
2023-08-03T11:48:36.649Z,16.88
2023-08-03T11:49:36.648Z,22.50
2023-08-03T11:50:36.664Z,22.50
2023-08-03T11:51:36.689Z,16.88
2023-08-03T11:52:36.739Z,16.88
2023-08-03T11:53:36.816Z,16.88
2023-08-03T11:54:36.758Z,16.88
2023-08-03T11:55:36.980Z,16.88
2023-08-03T11:56:45.806Z,16.88
2023-08-03T11:57:36.809Z,16.88
2023-08-03T11:58:36.868Z,22.50
2023-08-03T12:00:36.889Z,22.50
2023-08-03T12:01:37.085Z,22.50
2023-08-03T12:02:37.066Z,22.50
2023-08-03T12:03:37.043Z,28.13
2023-08-03T12:04:37.039Z,33.75
2023-08-03T12:05:50.340Z,45.00
2023-08-03T12:07:37.247Z,33.75
2023-08-03T12:08:37.122Z,28.13
2023-08-03T12:09:37.113Z,22.50
2023-08-03T12:10:40.466Z,22.50
2023-08-03T12:11:39.966Z,28.13
2023-08-03T12:12:39.629Z,28.13
2023-08-03T12:13:39.137Z,22.50
2023-08-03T12:14:37.237Z,28.13
2023-08-03T12:15:37.235Z,22.50
2023-08-03T12:16:37.244Z,22.50
2023-08-03T12:17:37.309Z,22.50
2023-08-03T12:18:37.320Z,28.13
2023-08-03T12:20:40.013Z,50.63
2023-08-03T12:21:37.431Z,28.13
2023-08-03T12:22:37.382Z,22.50
2023-08-03T12:23:37.412Z,22.50
2023-08-03T12:24:37.492Z,28.13
2023-08-03T12:25:37.489Z,22.50
2023-08-03T12:26:37.484Z,22.50
2023-08-03T12:27:38.519Z,22.50
2023-08-03T12:28:37.525Z,22.50
2023-08-03T12:30:37.603Z,28.13
2023-08-03T12:31:37.643Z,22.50
2023-08-03T12:33:37.670Z,28.13
2023-08-03T12:34:37.695Z,22.50
2023-08-03T12:35:37.693Z,33.75
2023-08-03T12:36:37.781Z,45.00
2023-08-03T12:37:37.756Z,39.38
2023-08-03T12:38:37.757Z,28.13
2023-08-03T12:39:37.809Z,28.13
2023-08-03T12:40:37.797Z,22.50
2023-08-03T12:41:37.822Z,28.13
2023-08-03T12:42:37.873Z,39.38
2023-08-03T12:43:37.919Z,45.00
2023-08-03T12:44:37.915Z,45.00
2023-08-03T12:45:37.958Z,28.13
2023-08-03T12:46:38.157Z,22.50
2023-08-03T12:47:38.008Z,22.50
2023-08-03T12:48:38.138Z,33.75
2023-08-03T12:49:38.036Z,50.63
2023-08-03T12:50:38.033Z,45.00
2023-08-03T12:51:38.083Z,50.63
2023-08-03T12:52:38.082Z,28.13
2023-08-03T12:53:38.098Z,28.13
2023-08-03T12:54:38.159Z,33.75
2023-08-03T12:55:38.148Z,39.38
2023-08-03T12:56:38.214Z,39.38
2023-08-03T12:57:38.197Z,45.00
2023-08-03T12:58:38.235Z,50.63
2023-08-03T12:59:38.243Z,67.50
2023-08-03T13:00:38.287Z,67.50
2023-08-03T13:01:38.410Z,67.50
2023-08-03T13:02:42.245Z,84.38
2023-08-03T13:03:38.342Z,61.88
2023-08-03T13:04:38.433Z,50.63
2023-08-03T13:05:39.073Z,50.63
2023-08-03T13:06:38.413Z,50.63
2023-08-03T13:07:38.512Z,50.63
2023-08-03T13:08:38.502Z,78.75
2023-08-03T13:09:38.647Z,61.88
2023-08-03T13:10:39.286Z,67.50
2023-08-03T13:11:38.530Z,61.88
2023-08-03T13:12:38.553Z,56.25
2023-08-03T13:13:38.666Z,73.13
2023-08-03T13:14:38.649Z,45.00
2023-08-03T13:15:38.733Z,67.50
2023-08-03T13:16:38.737Z,67.50
2023-08-03T13:17:38.880Z,67.50
2023-08-03T13:18:38.848Z,78.75
2023-08-03T13:19:38.741Z,67.50
2023-08-03T13:20:39.639Z,78.75
2023-08-03T13:21:38.781Z,73.13
2023-08-03T13:22:38.814Z,67.50
2023-08-03T13:23:38.846Z,95.63
2023-08-03T13:24:38.852Z,78.75
2023-08-03T13:25:40.851Z,84.38
2023-08-03T13:26:38.955Z,78.75
2023-08-03T13:27:38.954Z,106.88
2023-08-03T13:28:38.958Z,90.00
2023-08-03T13:29:38.989Z,101.25
2023-08-03T13:30:39.016Z,45.00
2023-08-03T13:31:39.035Z,73.13
2023-08-03T13:32:39.148Z,50.63
2023-08-03T13:33:39.097Z,56.25
2023-08-03T13:34:39.139Z,56.25
2023-08-03T13:35:39.138Z,45.00
2023-08-03T13:36:39.204Z,39.38
2023-08-03T13:37:39.196Z,45.00
2023-08-03T13:38:39.224Z,39.38
2023-08-03T13:39:39.274Z,33.75
2023-08-03T13:40:39.358Z,28.13
2023-08-03T13:41:39.302Z,39.38
2023-08-03T13:42:39.323Z,45.00
2023-08-03T13:43:39.350Z,50.63